KFHR/FHR METAR and TAF weather

Enter ICAO airport designator
Station Type Date Time Source
KFHR METAR 2021/01/16 02:53 UTC NOAA

KFHR 160253Z AUTO 00000KT 8SM CLR 05/04 A3045 RMK AO2 SLP310 T00500044 53006 TSNO


Station Type Date Time Source
KFHR Decoded METAR 2021/01/16 02:53 UTC NOAA

FRIDAY HARBOR AIRPORT, WA, United States (KFHR) 48-31N 123-02W 32M
Jan 15, 2021 - 09:53 PM EST / 2021.01.16 0253 UTC
Wind: Calm:0
Visibility: 8 mile(s):0
Sky conditions: clear
Temperature: 41.0 F (5.0 C)
Dew Point: 39.9 F (4.4 C)
Relative Humidity: 95%
Pressure (altimeter): 30.45 in. Hg (1031 hPa)
Pressure tendency: 0.02 inches (0.6 hPa) higher than three hours ago
ob: KFHR 160253Z AUTO 00000KT 8SM CLR 05/04 A3045 RMK AO2 SLP310 T00500044 53006 TSNO
cycle: 3

Station Type Date Time Source
KFHR TAF UTC NOAA

Error!

Example: see airport list